Brisbane - nearby METAR Reports

YBBN - Brisbane Intl Ar, Australia
Distance from station: NNE 11km
Updated: 25/04/2019 00:30
Partly cloudy
Partly cloudy
 Wind from SSE
Wind: SSE 7 km/h
Temperature: 21°C
Dew Point: 18°C
Humidity: 83%
Barometer: 1020 hPa
Clouds: Partly cloudy
Visibility: 10 km
Cloud details: Few Clouds 914 m
Partly cloudy 1067 m
2019/04/24 14:30 YBBN 241430Z 16004KT 130V200 9999 FEW030 SCT035 21/18 Q1020 FM1500 20006KT 9999 -SHRA SCT030
YAMB - Amberley, Australia
Distance from station: WSW 42km
Updated: 25/04/2019 00:30
Overcast
Overcast
 Wind from SSW
Wind: SSW 11 km/h
Temperature: 19°C
Dew Point: 16°C
Humidity: 83%
Barometer: 1020 hPa
Clouds: Overcast
Cloud details: Overcast 2042 m
2019/04/24 14:30 YAMB 241430Z AUTO 20006KT //// // OVC067 19/16 Q1020
 
YBCG - Coolangatta Aws, Australia
Distance from station: SSE 102km
Updated: 25/04/2019 00:30
Clear
Clear
 Wind from SW
Wind: SW 7 km/h
Temperature: 17°C
Dew Point: 16°C
Humidity: 94%
Barometer: 1021 hPa
Clouds: Clear
Visibility: 10 km
2019/04/24 14:30 YBCG 241430Z AUTO 22004KT 9999 // NCD 17/16 Q1021 RF00.0/000.0